Barton under Needwood, United Kingdom
Current Conditions -  °F | °C
As of 6:20 AM on Saturday 29 Nov 2014 (Local Time) from EGNX Reporting Station
Haze Haze  
Wind Chill: 44°   Ceiling: 300
Heat Index: 48°   Visibility: 1.8mi
Dew Point: 48°   Wind: 9mph
Humidity: 100%   Direction: 60°ENE
Pressure: 29.83"   Gusts: NA
Location:  52.76°N, 1.72°W
Report Text: EGNX 290620Z 06008KT 3000 BR OVC003 09/09 Q1010
Loading
Personal Weather Stations






























Interactive Weather Map New forecast layout! Learn more

10-Day Weather Forecast

Advertisements
Track Severe Weather on mobile